Gipsy, Missouri
Current Conditions -  °F | °C
As of 3:53 AM on Monday 26 Jan 2015 (Local Time) from KPOF Reporting Station
Overcast Overcast  
Wind Chill: 27°   Ceiling: 2100
Heat Index: 35°   Visibility: 10mi
Dew Point: 27°   Wind: 10mph
Humidity: 72%   Direction: 320°NW
Pressure: 30.04"   Gusts: NA
Location:  37.15°N, 90.18°W
Report Text: KPOF 260953Z AUTO 32009KT 10SM OVC021 02/M03 A3004 RMK AO2 SLP176 T00171028
Loading
Personal Weather Stations






























Interactive Weather Map New forecast layout! Learn more

10-Day Weather Forecast

Advertisements
Track Severe Weather on mobile